createdAt,value
2019-04-22T00:00:34.587Z,7.81
2019-04-22T00:03:07.486Z,7.74
2019-04-22T00:05:54.984Z,7.67
2019-04-22T00:08:36.037Z,7.56
2019-04-22T00:11:19.557Z,7.51
2019-04-22T00:13:58.167Z,7.47
2019-04-22T00:16:19.483Z,7.45
2019-04-22T00:21:25.768Z,7.30
2019-04-22T00:23:59.126Z,7.25
2019-04-22T00:26:38.051Z,7.13
2019-04-22T00:29:36.023Z,7.06
2019-04-22T00:31:49.406Z,6.88
2019-04-22T00:34:16.654Z,6.66
2019-04-22T00:36:54.916Z,6.51
2019-04-22T00:39:33.715Z,6.36
2019-04-22T00:42:04.064Z,6.22
2019-04-22T00:47:07.389Z,5.97
2019-04-22T00:52:18.345Z,5.68
2019-04-22T00:54:53.208Z,5.54
2019-04-22T00:57:21.519Z,5.46
2019-04-22T00:59:57.267Z,5.37
2019-04-22T01:02:28.969Z,5.31
2019-04-22T01:05:04.033Z,5.27
2019-04-22T01:07:36.454Z,5.21
2019-04-22T01:10:12.860Z,5.19
2019-04-22T01:12:44.333Z,5.15
2019-04-22T01:15:27.221Z,5.07
2019-04-22T01:17:52.545Z,5.05
2019-04-22T01:20:54.616Z,4.94
2019-04-22T01:23:00.509Z,4.90
2019-04-22T01:25:29.447Z,4.85
2019-04-22T01:28:02.451Z,4.81
2019-04-22T01:30:32.439Z,4.81
2019-04-22T01:33:05.692Z,4.82
2019-04-22T01:35:45.621Z,4.84
2019-04-22T01:38:21.833Z,4.89
2019-04-22T01:41:07.145Z,4.90
2019-04-22T01:43:50.306Z,4.90
2019-04-22T01:46:14.251Z,4.86
2019-04-22T01:48:47.336Z,4.80
2019-04-22T01:51:22.357Z,4.69
2019-04-22T01:54:00.144Z,4.58
2019-04-22T01:56:27.333Z,4.46
2019-04-22T01:58:49.902Z,4.35
2019-04-22T02:01:37.431Z,4.24
2019-04-22T02:04:08.262Z,4.19
2019-04-22T02:06:43.620Z,4.13
2019-04-22T02:09:18.427Z,4.09
2019-04-22T02:11:56.908Z,4.05
2019-04-22T02:14:19.851Z,4.00
2019-04-22T02:16:56.133Z,3.97
2019-04-22T02:19:30.350Z,3.96
2019-04-22T02:21:56.444Z,3.91
2019-04-22T02:24:39.939Z,3.90
2019-04-22T02:27:12.362Z,3.87
2019-04-22T02:29:43.456Z,3.84
2019-04-22T02:32:33.887Z,3.85
2019-04-22T02:37:26.423Z,3.85
2019-04-22T02:40:09.633Z,3.82
2019-04-22T02:42:29.730Z,3.82
2019-04-22T02:44:58.462Z,3.83
2019-04-22T02:47:34.260Z,3.80
2019-04-22T02:50:16.131Z,3.77
2019-04-22T02:55:15.481Z,3.68
2019-04-22T02:57:47.452Z,3.66
2019-04-22T03:00:29.514Z,3.63
2019-04-22T03:03:11.408Z,3.58
2019-04-22T03:05:37.137Z,3.53
2019-04-22T03:08:21.215Z,3.49
2019-04-22T03:13:25.263Z,3.41
2019-04-22T03:15:59.558Z,3.41
2019-04-22T03:18:32.954Z,3.42
2019-04-22T03:21:14.159Z,3.42
2019-04-22T03:26:12.310Z,3.39
2019-04-22T03:28:47.711Z,3.39
2019-04-22T03:37:06.735Z,3.32
2019-04-22T03:44:27.019Z,3.25
2019-04-22T03:57:33.895Z,3.32
2019-04-22T04:02:15.732Z,3.38
2019-04-22T04:04:53.856Z,3.35
2019-04-22T04:07:40.514Z,3.36
2019-04-22T04:09:49.240Z,3.33
2019-04-22T04:12:25.160Z,3.32
2019-04-22T04:15:05.937Z,3.35
2019-04-22T04:25:27.321Z,3.74
2019-04-22T04:28:10.702Z,3.87
2019-04-22T04:30:21.274Z,3.99
2019-04-22T04:32:52.474Z,4.18
2019-04-22T04:35:32.304Z,4.36
2019-04-22T04:40:31.550Z,4.82
2019-04-22T04:42:58.315Z,5.05
2019-04-22T04:48:18.481Z,5.45
2019-04-22T04:50:47.380Z,5.72
2019-04-22T04:53:23.070Z,7.67
2019-04-22T04:55:51.731Z,11.73
2019-04-22T04:58:34.969Z,13.97
2019-04-22T05:03:41.682Z,16.54
2019-04-22T05:06:12.637Z,17.41
2019-04-22T05:11:16.150Z,18.02
2019-04-22T05:14:01.203Z,18.59
2019-04-22T05:19:05.648Z,18.83
2019-04-22T05:21:26.707Z,19.50
2019-04-22T05:24:02.659Z,20.03
2019-04-22T05:26:32.879Z,19.89
2019-04-22T05:29:06.579Z,20.73
2019-04-22T05:31:37.166Z,20.05
2019-04-22T05:34:08.235Z,18.96
2019-04-22T05:41:48.616Z,19.32
2019-04-22T05:44:23.539Z,20.34
2019-04-22T05:46:58.887Z,19.43
2019-04-22T05:49:33.007Z,17.91
2019-04-22T05:52:03.161Z,19.72
2019-04-22T05:57:14.266Z,19.88
2019-04-22T05:59:48.667Z,20.17
2019-04-22T06:02:23.540Z,20.96
2019-04-22T06:04:54.530Z,21.75
2019-04-22T06:07:22.842Z,21.53
2019-04-22T06:10:08.347Z,22.09
2019-04-22T06:12:29.767Z,22.34
2019-04-22T06:15:03.458Z,21.48
2019-04-22T06:17:48.988Z,21.99
2019-04-22T06:20:15.938Z,20.48
2019-04-22T06:25:39.603Z,21.06
2019-04-22T06:28:03.345Z,22.22
2019-04-22T06:30:34.583Z,21.20
2019-04-22T06:38:30.448Z,20.84
2019-04-22T06:41:00.333Z,20.88
2019-04-22T06:43:28.500Z,19.81
2019-04-22T06:46:06.395Z,19.51
2019-04-22T06:48:30.096Z,20.16
2019-04-22T06:51:06.458Z,18.27
2019-04-22T06:53:40.822Z,19.27
2019-04-22T06:58:51.473Z,18.65
2019-04-22T07:01:35.765Z,18.30
2019-04-22T07:03:53.189Z,17.46
2019-04-22T07:06:37.262Z,17.16
2019-04-22T07:11:29.680Z,18.46
2019-04-22T07:14:05.494Z,18.53
2019-04-22T07:16:44.659Z,19.66
2019-04-22T07:19:13.848Z,18.46
2019-04-22T07:21:52.399Z,16.89
2019-04-22T07:24:35.629Z,17.65
2019-04-22T07:26:57.624Z,16.48
2019-04-22T07:29:25.106Z,16.34
2019-04-22T07:32:00.378Z,16.53
2019-04-22T07:34:39.978Z,17.35
2019-04-22T07:37:23.360Z,15.50
2019-04-22T07:42:19.234Z,14.12
2019-04-22T07:44:51.247Z,14.49
2019-04-22T07:47:27.571Z,13.60
2019-04-22T07:49:59.426Z,14.29
2019-04-22T07:52:31.902Z,14.59
2019-04-22T07:55:13.297Z,15.54
2019-04-22T07:57:36.603Z,15.82
2019-04-22T08:00:20.700Z,16.08
2019-04-22T08:02:52.005Z,16.34
2019-04-22T08:05:22.315Z,16.23
2019-04-22T08:08:05.236Z,14.95
2019-04-22T08:10:40.399Z,14.38
2019-04-22T08:12:57.996Z,15.24
2019-04-22T08:15:42.048Z,15.23
2019-04-22T08:18:15.705Z,15.26
2019-04-22T08:20:49.775Z,14.91
2019-04-22T08:26:25.205Z,14.32
2019-04-22T08:29:02.307Z,14.04
2019-04-22T08:31:35.646Z,14.02
2019-04-22T08:34:12.033Z,14.03
2019-04-22T08:39:13.623Z,13.40
2019-04-22T08:41:40.288Z,12.56
2019-04-22T08:44:27.859Z,12.46
2019-04-22T08:49:32.209Z,12.25
2019-04-22T08:54:37.623Z,12.74
2019-04-22T08:57:15.960Z,12.49
2019-04-22T08:59:46.215Z,12.89
2019-04-22T09:02:23.031Z,12.61
2019-04-22T09:04:49.436Z,12.59
2019-04-22T09:09:55.714Z,12.21
2019-04-22T09:12:46.950Z,12.19
2019-04-22T09:15:08.628Z,12.12
2019-04-22T09:17:40.332Z,12.64
2019-04-22T09:20:18.756Z,12.82
2019-04-22T09:22:47.169Z,12.78
2019-04-22T09:25:24.042Z,12.92
2019-04-22T09:28:10.518Z,12.95
2019-04-22T09:30:37.394Z,12.80
2019-04-22T09:33:09.616Z,12.73
2019-04-22T09:35:41.375Z,12.53
2019-04-22T09:38:25.483Z,12.61
2019-04-22T09:40:45.895Z,12.97
2019-04-22T09:45:54.463Z,13.18
2019-04-22T09:48:31.880Z,13.46
2019-04-22T09:51:03.694Z,13.31
2019-04-22T09:53:39.238Z,13.61
2019-04-22T09:56:08.069Z,13.15
2019-04-22T09:58:39.556Z,13.23
2019-04-22T10:01:25.867Z,13.08
2019-04-22T10:04:11.342Z,13.68
2019-04-22T10:09:26.302Z,15.28
2019-04-22T10:11:43.647Z,15.15
2019-04-22T10:14:23.838Z,14.73
2019-04-22T10:16:54.980Z,15.24
2019-04-22T10:19:39.253Z,15.23
2019-04-22T10:22:19.906Z,15.45
2019-04-22T10:24:57.016Z,14.93
2019-04-22T10:27:32.731Z,15.19
2019-04-22T10:30:12.377Z,14.84
2019-04-22T10:32:48.143Z,15.71
2019-04-22T10:35:11.125Z,15.12
2019-04-22T10:37:42.579Z,15.03
2019-04-22T10:40:19.643Z,15.03
2019-04-22T10:42:56.793Z,15.45
2019-04-22T10:45:42.047Z,15.66
2019-04-22T10:48:16.784Z,15.55
2019-04-22T10:50:50.510Z,15.82
2019-04-22T10:53:23.747Z,15.80
2019-04-22T10:55:56.387Z,15.55
2019-04-22T10:58:28.814Z,15.95
2019-04-22T11:01:00.921Z,15.72
2019-04-22T11:03:33.275Z,15.72
2019-04-22T11:06:05.591Z,16.06
2019-04-22T11:08:43.327Z,16.08
2019-04-22T11:11:25.983Z,15.95
2019-04-22T11:13:55.990Z,16.33
2019-04-22T11:16:25.690Z,16.22
2019-04-22T11:18:59.234Z,15.86
2019-04-22T11:21:33.763Z,16.02
2019-04-22T11:24:06.767Z,16.53
2019-04-22T11:26:38.873Z,16.98
2019-04-22T11:29:12.068Z,16.91
2019-04-22T11:31:46.620Z,16.53
2019-04-22T11:34:21.330Z,16.59
2019-04-22T11:36:53.171Z,16.74
2019-04-22T11:39:26.866Z,16.86
2019-04-22T11:42:00.385Z,16.45
2019-04-22T11:44:33.337Z,16.28
2019-04-22T11:47:05.725Z,16.50
2019-04-22T11:49:37.297Z,16.35
2019-04-22T11:52:11.343Z,16.49
2019-04-22T11:54:43.803Z,16.95
2019-04-22T11:57:16.976Z,17.13
2019-04-22T11:59:49.452Z,16.95
2019-04-22T12:02:23.372Z,17.12
2019-04-22T12:04:59.455Z,16.98
2019-04-22T12:07:34.469Z,17.19
2019-04-22T12:10:17.758Z,17.02
2019-04-22T12:12:44.154Z,17.10
2019-04-22T12:15:15.327Z,16.90
2019-04-22T12:17:48.636Z,16.98
2019-04-22T12:20:23.438Z,17.04
2019-04-22T12:22:56.745Z,16.85
2019-04-22T12:25:41.954Z,17.31
2019-04-22T12:28:03.441Z,17.40
2019-04-22T12:30:37.322Z,17.37
2019-04-22T12:33:11.681Z,17.59
2019-04-22T12:35:44.238Z,17.22
2019-04-22T12:38:20.282Z,17.16
2019-04-22T12:40:57.414Z,16.89
2019-04-22T12:43:27.820Z,17.35
2019-04-22T12:46:00.393Z,17.13
2019-04-22T12:48:34.921Z,17.35
2019-04-22T12:51:09.283Z,17.44
2019-04-22T12:53:42.229Z,17.87
2019-04-22T12:56:15.405Z,17.71
2019-04-22T12:58:49.654Z,17.89
2019-04-22T13:01:21.512Z,17.84
2019-04-22T13:04:05.770Z,17.51
2019-04-22T13:06:33.371Z,17.53
2019-04-22T13:09:08.682Z,17.37
2019-04-22T13:11:40.782Z,17.65
2019-04-22T13:14:15.007Z,17.64
2019-04-22T13:16:47.286Z,17.45
2019-04-22T13:19:21.018Z,17.51
2019-04-22T13:21:52.665Z,17.62
2019-04-22T13:24:25.787Z,17.67
2019-04-22T13:26:59.129Z,17.45
2019-04-22T13:29:31.164Z,17.63
2019-04-22T13:32:06.846Z,17.36
2019-04-22T13:34:45.673Z,17.42
2019-04-22T13:37:12.863Z,18.01
2019-04-22T13:39:49.258Z,17.90
2019-04-22T13:42:30.149Z,17.80
2019-04-22T13:45:11.619Z,17.86
2019-04-22T13:48:01.496Z,17.94
2019-04-22T13:50:50.016Z,18.00
2019-04-22T13:53:42.569Z,18.23
2019-04-22T13:55:52.769Z,17.51
2019-04-22T13:58:14.690Z,17.69
2019-04-22T14:00:34.522Z,17.63
2019-04-22T14:03:24.938Z,17.78
2019-04-22T14:05:58.654Z,17.74
2019-04-22T14:08:31.376Z,17.99
2019-04-22T14:11:14.477Z,18.10
2019-04-22T14:13:37.746Z,18.09
2019-04-22T14:16:13.277Z,17.95
2019-04-22T14:18:46.112Z,18.04
2019-04-22T14:21:18.940Z,18.11
2019-04-22T14:23:50.968Z,18.21
2019-04-22T14:26:23.079Z,18.13
2019-04-22T14:28:55.682Z,18.11
2019-04-22T14:31:28.686Z,18.01
2019-04-22T14:34:04.981Z,17.81
2019-04-22T14:36:35.295Z,17.75
2019-04-22T14:39:10.365Z,17.82
2019-04-22T14:44:08.381Z,17.64
2019-04-22T14:47:27.842Z,17.99
2019-04-22T14:50:02.734Z,17.98
2019-04-22T14:52:42.526Z,17.99
2019-04-22T14:55:01.106Z,18.09
2019-04-22T14:57:23.362Z,18.13
2019-04-22T14:59:55.801Z,18.20
2019-04-22T15:02:28.043Z,18.26
2019-04-22T15:05:00.554Z,18.32
2019-04-22T15:07:33.100Z,18.38
2019-04-22T15:10:08.569Z,17.86
2019-04-22T15:12:46.151Z,17.76
2019-04-22T15:15:34.658Z,17.76
2019-04-22T15:18:10.191Z,17.89
2019-04-22T15:21:04.994Z,18.08
2019-04-22T15:23:38.487Z,18.15
2019-04-22T15:26:12.667Z,18.30
2019-04-22T15:28:45.191Z,18.50
2019-04-22T15:31:19.677Z,18.82
2019-04-22T15:33:52.343Z,18.85
2019-04-22T15:36:24.222Z,18.78
2019-04-22T15:38:57.474Z,18.56
2019-04-22T15:41:30.878Z,18.28
2019-04-22T15:44:03.702Z,18.00
2019-04-22T15:46:37.021Z,17.77
2019-04-22T15:49:09.897Z,17.59
2019-04-22T15:51:48.945Z,17.45
2019-04-22T15:54:23.504Z,17.36
2019-04-22T15:56:59.042Z,17.52
2019-04-22T15:59:48.986Z,17.66
2019-04-22T16:02:06.567Z,17.69
2019-04-22T16:04:38.930Z,17.77
2019-04-22T16:07:10.919Z,17.87
2019-04-22T16:09:45.611Z,17.91
2019-04-22T16:12:27.192Z,17.97
2019-04-22T16:14:56.977Z,17.92
2019-04-22T16:17:28.566Z,17.92
2019-04-22T16:20:01.538Z,17.96
2019-04-22T16:22:55.168Z,18.00
2019-04-22T16:25:45.042Z,17.95
2019-04-22T16:28:19.415Z,17.95
2019-04-22T16:30:51.204Z,17.87
2019-04-22T16:33:25.642Z,17.90
2019-04-22T16:35:58.770Z,17.76
2019-04-22T16:38:30.994Z,17.62
2019-04-22T16:41:03.030Z,17.54
2019-04-22T16:43:34.593Z,17.38
2019-04-22T16:46:07.825Z,17.36
2019-04-22T16:48:39.968Z,17.33
2019-04-22T16:51:11.908Z,17.29
2019-04-22T16:53:45.139Z,17.35
2019-04-22T16:56:17.073Z,17.30
2019-04-22T16:58:50.728Z,17.31
2019-04-22T17:01:30.547Z,17.20
2019-04-22T17:04:12.324Z,17.16
2019-04-22T17:06:47.815Z,17.13
2019-04-22T17:09:25.929Z,17.09
2019-04-22T17:11:59.021Z,17.07
2019-04-22T17:14:41.053Z,17.02
2019-04-22T17:17:10.606Z,16.97
2019-04-22T17:19:45.055Z,16.92
2019-04-22T17:22:17.987Z,16.83
2019-04-22T17:24:49.907Z,16.74
2019-04-22T17:27:22.371Z,16.64
2019-04-22T17:29:59.012Z,16.55
2019-04-22T17:32:33.893Z,16.48
2019-04-22T17:35:08.610Z,16.41
2019-04-22T17:37:42.784Z,16.34
2019-04-22T17:40:33.011Z,16.23
2019-04-22T17:43:28.429Z,16.16
2019-04-22T17:45:54.080Z,16.04
2019-04-22T17:48:40.221Z,15.93
2019-04-22T17:51:29.926Z,15.84
2019-04-22T17:54:07.216Z,15.73
2019-04-22T17:56:30.921Z,15.70
2019-04-22T17:59:11.994Z,15.59
2019-04-22T18:01:41.221Z,15.56
2019-04-22T18:03:59.296Z,15.38
2019-04-22T18:06:58.126Z,15.30
2019-04-22T18:09:41.173Z,15.33
2019-04-22T18:12:05.678Z,15.32
2019-04-22T18:14:57.693Z,15.20
2019-04-22T18:17:11.223Z,15.20
2019-04-22T18:19:39.603Z,15.05
2019-04-22T18:22:10.910Z,14.99
2019-04-22T18:24:49.402Z,14.90
2019-04-22T18:27:43.021Z,14.80
2019-04-22T18:29:58.982Z,14.66
2019-04-22T18:32:22.807Z,14.55
2019-04-22T18:35:08.053Z,14.50
2019-04-22T18:37:50.014Z,14.45
2019-04-22T18:40:24.273Z,14.43
2019-04-22T18:43:26.017Z,14.45
2019-04-22T18:46:06.534Z,14.40
2019-04-22T18:48:33.345Z,14.29
2019-04-22T18:51:25.768Z,14.29
2019-04-22T18:54:10.359Z,14.19
2019-04-22T18:56:46.503Z,14.11
2019-04-22T18:59:10.496Z,14.11
2019-04-22T19:01:37.840Z,14.09
2019-04-22T19:04:19.394Z,14.09
2019-04-22T19:07:13.988Z,14.03
2019-04-22T19:09:59.739Z,14.00
2019-04-22T19:15:04.144Z,13.93
2019-04-22T19:18:03.897Z,13.97
2019-04-22T19:20:37.695Z,13.95
2019-04-22T19:23:12.914Z,13.87
2019-04-22T19:25:36.931Z,13.95
2019-04-22T19:28:29.256Z,13.89
2019-04-22T19:31:10.792Z,13.83
2019-04-22T19:33:40.499Z,13.89
2019-04-22T19:36:35.829Z,13.78
2019-04-22T19:38:52.637Z,13.83
2019-04-22T19:41:36.349Z,13.84
2019-04-22T19:44:16.475Z,13.73
2019-04-22T19:47:06.811Z,13.67
2019-04-22T19:49:34.532Z,13.65
2019-04-22T19:52:11.365Z,13.60
2019-04-22T19:54:40.050Z,13.54
2019-04-22T19:57:21.358Z,13.56
2019-04-22T20:00:05.511Z,13.49
2019-04-22T20:03:07.304Z,13.43
2019-04-22T20:05:54.370Z,13.39
2019-04-22T20:08:31.221Z,13.38
2019-04-22T20:11:19.738Z,13.35
2019-04-22T20:14:00.887Z,13.33
2019-04-22T20:16:27.283Z,13.28
2019-04-22T20:19:06.969Z,13.32
2019-04-22T20:21:40.291Z,13.28
2019-04-22T20:24:07.989Z,13.18
2019-04-22T20:27:10.574Z,13.20
2019-04-22T20:29:56.429Z,13.13
2019-04-22T20:32:15.426Z,13.12
2019-04-22T20:34:57.594Z,13.09
2019-04-22T20:37:35.374Z,13.06
2019-04-22T20:40:10.284Z,13.00
2019-04-22T20:42:55.623Z,12.97
2019-04-22T20:45:26.281Z,12.94
2019-04-22T20:47:51.423Z,12.93
2019-04-22T20:50:48.042Z,12.94
2019-04-22T20:53:29.913Z,12.81
2019-04-22T20:56:04.303Z,12.82
2019-04-22T20:58:38.788Z,12.78
2019-04-22T21:01:11.624Z,12.70
2019-04-22T21:03:45.060Z,12.71
2019-04-22T21:06:35.300Z,12.61
2019-04-22T21:09:13.515Z,12.59
2019-04-22T21:11:53.648Z,12.58
2019-04-22T21:14:36.135Z,12.51
2019-04-22T21:17:15.357Z,12.53
2019-04-22T21:19:54.664Z,12.46
2019-04-22T21:22:27.311Z,12.37
2019-04-22T21:24:52.248Z,12.38
2019-04-22T21:27:42.318Z,12.27
2019-04-22T21:30:12.451Z,12.24
2019-04-22T21:32:49.501Z,12.17
2019-04-22T21:35:48.640Z,12.18
2019-04-22T21:38:06.187Z,12.13
2019-04-22T21:40:35.578Z,12.13
2019-04-22T21:43:12.180Z,12.05
2019-04-22T21:45:43.213Z,12.07
2019-04-22T21:48:27.473Z,12.05
2019-04-22T21:50:59.508Z,11.96
2019-04-22T21:53:31.484Z,11.95
2019-04-22T21:56:11.609Z,11.86
2019-04-22T21:58:49.037Z,11.89
2019-04-22T22:04:03.115Z,11.80
2019-04-22T22:06:25.011Z,11.74
2019-04-22T22:09:07.237Z,11.68
2019-04-22T22:11:35.747Z,11.59
2019-04-22T22:14:12.340Z,11.62
2019-04-22T22:16:38.341Z,11.58
2019-04-22T22:19:15.704Z,11.54
2019-04-22T22:21:58.649Z,11.45
2019-04-22T22:24:36.959Z,11.45
2019-04-22T22:27:04.845Z,11.36
2019-04-22T22:29:55.838Z,11.34
2019-04-22T22:32:12.993Z,11.28
2019-04-22T22:34:46.442Z,11.31
2019-04-22T22:37:12.124Z,11.30
2019-04-22T22:39:42.891Z,11.26
2019-04-22T22:42:10.921Z,11.22
2019-04-22T22:44:44.855Z,11.12
2019-04-22T22:47:34.252Z,11.08
2019-04-22T22:50:12.881Z,11.04
2019-04-22T22:55:14.806Z,10.95
2019-04-22T22:57:52.707Z,10.88
2019-04-22T23:00:28.756Z,10.88
2019-04-22T23:03:36.452Z,10.89
2019-04-22T23:05:45.481Z,10.84
2019-04-22T23:08:17.001Z,10.86
2019-04-22T23:10:55.593Z,10.84
2019-04-22T23:13:25.863Z,10.80
2019-04-22T23:15:46.699Z,10.74
2019-04-22T23:18:07.843Z,10.67
2019-04-22T23:20:45.134Z,10.66
2019-04-22T23:26:07.471Z,10.58
2019-04-22T23:28:41.834Z,10.70
2019-04-22T23:31:14.062Z,10.60
2019-04-22T23:33:56.090Z,10.47
2019-04-22T23:36:52.485Z,10.48
2019-04-22T23:39:33.319Z,10.48
2019-04-22T23:42:06.111Z,10.43
2019-04-22T23:44:39.829Z,10.45
2019-04-22T23:47:07.275Z,10.43
2019-04-22T23:49:42.616Z,10.43
2019-04-22T23:55:02.113Z,10.39
2019-04-22T23:57:41.878Z,10.40
